Time;durP1;ratioP1;P1;durP2;ratioP2;P2;SDS_P1;SDS_P2;PMS_P1;PMS_P2;Temp;Humidity;BMP_temperature;BMP_pressure;BME280_temperature;BME280_humidity;BME280_pressure;Samples;Min_cycle;Max_cycle;Signal;HPM_P1;HPM_P2
2023/02/04 00:01:07;;;;;;;34.75;24.45;;;10.70;84.00;;;;;;6338720;22;20003;-80
2023/02/04 00:03:33;;;;;;;33.22;24.85;;;10.70;84.20;;;;;;6338400;22;20002;-81
2023/02/04 00:05:59;;;;;;;33.33;23.67;;;10.60;83.70;;;;;;6338501;22;20005;-80
2023/02/04 00:08:24;;;;;;;36.58;22.63;;;10.60;84.20;;;;;;6338563;22;19999;-80
2023/02/04 00:10:50;;;;;;;37.88;24.55;;;10.50;83.70;;;;;;6338011;22;20306;-79
2023/02/04 00:13:16;;;;;;;32.67;23.75;;;10.60;84.30;;;;;;6338537;22;20017;-81
2023/02/04 00:15:41;;;;;;;37.28;23.60;;;10.50;84.30;;;;;;6338183;22;20001;-79
2023/02/04 00:18:08;;;;;;;34.75;23.92;;;10.40;84.30;;;;;;6338693;22;19995;-80
2023/02/04 00:20:34;;;;;;;33.20;22.13;;;10.30;84.30;;;;;;6338718;22;20003;-80
2023/02/04 00:23:00;;;;;;;35.85;23.85;;;10.30;84.50;;;;;;6338716;22;20010;-79
2023/02/04 00:25:26;;;;;;;34.45;22.90;;;10.30;84.70;;;;;;6310449;22;20006;-78
2023/02/04 00:27:51;;;;;;;37.05;23.95;;;10.30;84.80;;;;;;6338514;22;20098;-80
2023/02/04 00:30:17;;;;;;;32.92;23.70;;;10.30;85.30;;;;;;6338341;22;20015;-80
2023/02/04 00:32:43;;;;;;;37.53;22.88;;;10.30;84.50;;;;;;6338615;22;20003;-79
2023/02/04 00:35:09;;;;;;;38.80;23.90;;;10.30;84.80;;;;;;6338217;22;20048;-78
2023/02/04 00:37:34;;;;;;;35.50;23.17;;;10.20;84.70;;;;;;6338183;22;20377;-79
2023/02/04 00:40:00;;;;;;;41.88;24.60;;;10.20;85.20;;;;;;6337975;22;19998;-78
2023/02/04 00:42:26;;;;;;;37.67;23.80;;;10.20;84.60;;;;;;6338104;22;20006;-80
2023/02/04 00:44:52;;;;;;;37.85;24.60;;;10.20;84.90;;;;;;6338224;22;19991;-79
2023/02/04 00:47:18;;;;;;;36.83;24.00;;;10.10;85.00;;;;;;6338657;22;20007;-79
2023/02/04 00:49:44;;;;;;;38.55;25.55;;;10.00;84.90;;;;;;6338393;22;19994;-79
2023/02/04 00:52:09;;;;;;;37.30;23.73;;;10.00;85.10;;;;;;6310392;22;20399;-79
2023/02/04 00:54:35;;;;;;;37.42;24.33;;;9.90;86.30;;;;;;6310564;22;20007;-78
2023/02/04 00:57:01;;;;;;;38.08;24.92;;;9.90;86.60;;;;;;6338405;22;20070;-79
2023/02/04 00:59:27;;;;;;;37.03;26.25;;;9.80;86.20;;;;;;6338103;22;20024;-80
2023/02/04 01:01:52;;;;;;;38.10;23.77;;;9.80;86.40;;;;;;6338036;22;20060;-80
2023/02/04 01:04:18;;;;;;;35.58;24.05;;;9.80;86.80;;;;;;6338047;22;20009;-81
2023/02/04 01:06:44;;;;;;;35.13;24.33;;;9.80;87.10;;;;;;6337887;22;20034;-79
2023/02/04 01:09:10;;;;;;;38.88;26.65;;;9.80;87.50;;;;;;6337857;22;19999;-81
2023/02/04 01:11:36;;;;;;;34.65;24.52;;;9.80;87.30;;;;;;6338181;22;20025;-79
2023/02/04 01:14:02;;;;;;;44.80;25.98;;;9.70;86.90;;;;;;6337969;22;20074;-79
2023/02/04 01:16:27;;;;;;;41.70;26.77;;;9.60;86.60;;;;;;6337880;22;20379;-79
2023/02/04 01:18:54;;;;;;;35.47;25.52;;;9.50;86.80;;;;;;6337811;22;19995;-81
2023/02/04 01:21:22;;;;;;;33.58;25.13;;;9.50;87.20;;;;;;6338340;22;19999;-80
2023/02/04 01:23:49;;;;;;;38.78;26.30;;;9.50;87.70;;;;;;6338023;22;20003;-79
2023/02/04 01:26:15;;;;;;;36.47;24.75;;;9.50;88.00;;;;;;6338091;22;20014;-81
2023/02/04 01:28:41;;;;;;;33.53;24.67;;;9.50;87.90;;;;;;6337856;22;20002;-79
2023/02/04 01:31:06;;;;;;;36.97;25.83;;;9.50;87.60;;;;;;6337798;22;20015;-78
2023/02/04 01:33:32;;;;;;;37.70;24.90;;;9.50;87.80;;;;;;6338067;22;20069;-78
2023/02/04 01:35:58;;;;;;;37.65;26.02;;;9.50;88.00;;;;;;6337935;22;20041;-80
2023/02/04 01:38:23;;;;;;;35.95;25.45;;;9.50;87.50;;;;;;6310015;22;20298;-80
2023/02/04 01:40:49;;;;;;;39.80;24.65;;;9.50;87.50;;;;;;6339927;22;20002;-79
2023/02/04 01:43:17;;;;;;;35.67;25.40;;;9.30;87.70;;;;;;6354070;22;20002;-79
2023/02/04 01:45:45;;;;;;;33.78;24.02;;;9.30;87.80;;;;;;6353479;22;20007;-79
2023/02/04 01:48:13;;;;;;;32.78;23.55;;;9.20;87.30;;;;;;6357446;22;20029;-78
2023/02/04 01:50:39;;;;;;;31.02;23.73;;;9.10;87.90;;;;;;6341369;22;20045;-80
2023/02/04 01:53:04;;;;;;;37.63;24.05;;;9.10;88.00;;;;;;6338852;22;20021;-80
2023/02/04 01:55:32;;;;;;;29.70;22.73;;;9.10;88.20;;;;;;6338946;22;20414;-78
2023/02/04 01:57:58;;;;;;;35.83;23.98;;;9.00;88.20;;;;;;6339406;22;20010;-79
2023/02/04 02:00:30;;;;;;;31.20;23.80;;;9.00;88.40;;;;;;6342015;22;19995;-80
2023/02/04 02:02:57;;;;;;;38.38;24.75;;;9.00;88.60;;;;;;6340902;22;20029;-78
2023/02/04 02:05:44;;;;;;;38.80;24.65;;;8.90;88.50;;;;;;6310960;22;20007;-78
2023/02/04 02:08:11;;;;;;;36.42;24.63;;;8.90;88.40;;;;;;6338370;22;20015;-80
2023/02/04 02:10:39;;;;;;;36.03;24.20;;;8.90;88.60;;;;;;6338141;22;20371;-80
2023/02/04 02:13:08;;;;;;;30.85;24.83;;;8.90;88.60;;;;;;6339131;22;20009;-80
2023/02/04 02:15:34;;;;;;;36.03;24.95;;;9.00;88.80;;;;;;6339631;22;20002;-79
2023/02/04 02:18:00;;;;;;;35.28;25.52;;;8.90;88.70;;;;;;6339562;22;20443;-79
2023/02/04 02:20:28;;;;;;;36.63;25.10;;;8.90;88.90;;;;;;6339365;22;20010;-79
2023/02/04 02:23:44;;;;;;;36.95;25.08;;;8.90;88.80;;;;;;6311663;22;20007;-79
2023/02/04 02:26:10;;;;;;;34.75;24.17;;;8.90;90.60;;;;;;6303945;22;20343;-80
2023/02/04 02:28:35;;;;;;;34.53;24.25;;;8.90;88.80;;;;;;6339263;22;19995;-79
2023/02/04 02:31:01;;;;;;;32.72;23.58;;;8.90;88.80;;;;;;6339517;22;20010;-80
2023/02/04 02:33:27;;;;;;;34.15;24.30;;;8.90;88.90;;;;;;6339384;22;20436;-80
2023/02/04 02:35:53;;;;;;;33.15;24.02;;;8.90;88.80;;;;;;6340414;22;20026;-79
2023/02/04 02:38:19;;;;;;;33.22;25.35;;;8.90;89.00;;;;;;6316055;22;20010;-80
2023/02/04 02:40:46;;;;;;;37.92;23.73;;;8.80;89.00;;;;;;6343281;22;20310;-79
2023/02/04 02:43:15;;;;;;;33.67;24.30;;;8.80;89.20;;;;;;6339851;22;19999;-77
2023/02/04 02:45:41;;;;;;;31.45;24.02;;;8.80;89.30;;;;;;6339400;22;19999;-79
2023/02/04 02:48:08;;;;;;;41.42;24.77;;;8.80;89.50;;;;;;6339494;22;20081;-80
2023/02/04 02:50:33;;;;;;;33.40;24.25;;;8.80;89.30;;;;;;6311689;22;19999;-79
2023/02/04 02:53:00;;;;;;;32.80;23.25;;;8.90;89.40;;;;;;6339030;22;20002;-79
2023/02/04 02:55:27;;;;;;;36.03;23.33;;;8.80;89.20;;;;;;6339354;22;19995;-78
2023/02/04 02:57:55;;;;;;;35.50;25.55;;;8.80;89.10;;;;;;6339028;22;20428;-79
2023/02/04 03:00:24;;;;;;;35.13;24.88;;;8.80;89.20;;;;;;6339338;22;20088;-81
2023/02/04 03:03:06;;;;;;;38.78;24.10;;;8.70;89.30;;;;;;6338808;22;20009;-80
2023/02/04 03:05:36;;;;;;;32.53;24.15;;;8.70;89.20;;;;;;6336774;22;20026;-80
2023/02/04 03:08:03;;;;;;;32.03;23.67;;;8.70;89.50;;;;;;6338358;22;20014;-80
2023/02/04 03:10:29;;;;;;;31.13;24.30;;;8.70;89.80;;;;;;6339675;22;20302;-79
2023/02/04 03:12:55;;;;;;;32.47;23.58;;;8.70;89.40;;;;;;6338877;22;20056;-79
2023/02/04 03:15:21;;;;;;;36.95;24.77;;;8.70;89.80;;;;;;6339072;22;19994;-80
2023/02/04 03:17:47;;;;;;;38.72;25.38;;;8.70;89.60;;;;;;6339173;22;20444;-81
2023/02/04 03:20:14;;;;;;;32.05;24.02;;;8.70;89.60;;;;;;6338749;22;20002;-79
2023/02/04 03:22:40;;;;;;;35.67;24.88;;;8.60;89.40;;;;;;6338678;22;20497;-80
2023/02/04 03:25:06;;;;;;;33.88;24.27;;;8.70;89.80;;;;;;6310787;22;19999;-79
2023/02/04 03:27:32;;;;;;;33.92;24.20;;;8.70;90.00;;;;;;6338774;22;20064;-80
2023/02/04 03:29:58;;;;;;;34.53;24.10;;;8.70;89.90;;;;;;6338598;22;20046;-79
2023/02/04 03:32:23;;;;;;;28.83;23.15;;;8.70;89.80;;;;;;6338891;22;19999;-79
2023/02/04 03:34:49;;;;;;;34.45;24.73;;;8.60;89.80;;;;;;6339001;22;19999;-80
2023/02/04 03:37:15;;;;;;;37.03;24.13;;;8.60;90.00;;;;;;6338329;22;20069;-80
2023/02/04 03:39:40;;;;;;;33.60;25.20;;;8.50;90.00;;;;;;6338839;22;20074;-80
2023/02/04 03:42:06;;;;;;;31.17;23.92;;;8.50;90.00;;;;;;6339040;22;20072;-79
2023/02/04 03:44:32;;;;;;;31.75;23.52;;;8.50;90.00;;;;;;6338902;22;20034;-79
2023/02/04 03:46:58;;;;;;;34.05;24.50;;;8.50;90.10;;;;;;6339139;22;20085;-81
2023/02/04 03:49:24;;;;;;;32.65;23.85;;;8.50;89.90;;;;;;6338800;22;20007;-80
2023/02/04 03:51:50;;;;;;;29.40;23.17;;;8.50;89.90;;;;;;6338492;22;20325;-79
2023/02/04 03:54:16;;;;;;;31.25;23.40;;;8.50;90.00;;;;;;6338963;22;20006;-79
2023/02/04 03:56:41;;;;;;;35.50;22.92;;;8.50;89.80;;;;;;6338906;22;20018;-80
2023/02/04 03:59:07;;;;;;;32.60;23.92;;;8.50;90.00;;;;;;6338329;22;20033;-79
2023/02/04 04:01:33;;;;;;;33.22;23.25;;;8.60;90.00;;;;;;6338475;22;20417;-79
2023/02/04 04:03:58;;;;;;;32.30;23.75;;;8.60;90.00;;;;;;6311027;22;20496;-78
2023/02/04 04:06:24;;;;;;;31.77;22.70;;;8.70;89.90;;;;;;6311925;22;20531;-79
2023/02/04 04:08:50;;;;;;;32.50;22.63;;;8.70;90.00;;;;;;6350983;22;20002;-78
2023/02/04 04:11:15;;;;;;;28.38;23.10;;;8.70;89.90;;;;;;6356856;22;20333;-78
2023/02/04 04:13:41;;;;;;;32.35;22.95;;;8.60;89.90;;;;;;6361459;22;20052;-78
2023/02/04 04:16:08;;;;;;;27.38;22.15;;;8.50;89.70;;;;;;6346162;22;19999;-80
2023/02/04 04:18:34;;;;;;;28.80;22.27;;;8.40;90.20;;;;;;6339240;22;20003;-79
2023/02/04 04:21:00;;;;;;;32.10;23.35;;;8.50;90.20;;;;;;6338624;22;20009;-80
2023/02/04 04:23:26;;;;;;;30.08;23.38;;;8.50;90.10;;;;;;6339323;22;20005;-79
2023/02/04 04:25:51;;;;;;;35.30;24.25;;;8.50;90.00;;;;;;6338252;22;20062;-79
2023/02/04 04:28:17;;;;;;;33.88;25.60;;;8.40;90.30;;;;;;6337911;22;20003;-79
2023/02/04 04:30:43;;;;;;;32.13;23.42;;;8.40;90.00;;;;;;6338813;22;20341;-79
2023/02/04 04:33:09;;;;;;;30.75;23.55;;;8.30;90.00;;;;;;6338387;22;20002;-79
2023/02/04 04:35:35;;;;;;;33.88;23.88;;;8.30;90.10;;;;;;6337825;22;20007;-80
2023/02/04 04:38:01;;;;;;;32.90;23.40;;;8.30;90.00;;;;;;6338404;22;20356;-80
2023/02/04 04:40:27;;;;;;;35.83;23.38;;;8.20;90.00;;;;;;6339606;22;19998;-79
2023/02/04 04:42:52;;;;;;;29.50;23.23;;;8.10;90.00;;;;;;6341547;22;20014;-78
2023/02/04 04:45:20;;;;;;;37.58;24.13;;;8.10;90.00;;;;;;6340790;22;19994;-78
2023/02/04 04:47:46;;;;;;;30.08;23.58;;;8.10;90.10;;;;;;6339244;22;20009;-81
2023/02/04 04:50:11;;;;;;;33.75;24.30;;;8.00;90.10;;;;;;6339185;22;20420;-80
2023/02/04 04:52:37;;;;;;;32.30;24.77;;;8.00;90.00;;;;;;6339178;22;20003;-80
2023/02/04 04:55:03;;;;;;;30.42;23.50;;;8.00;90.00;;;;;;6338281;22;20006;-81
2023/02/04 04:57:29;;;;;;;32.88;23.75;;;7.90;90.00;;;;;;6311658;22;20081;-80
2023/02/04 04:59:54;;;;;;;33.47;23.80;;;7.90;90.00;;;;;;6311002;22;20010;-80
2023/02/04 05:02:20;;;;;;;31.55;23.40;;;7.90;90.20;;;;;;6338648;22;20336;-79
2023/02/04 05:04:46;;;;;;;33.70;25.23;;;7.90;90.10;;;;;;6339212;22;20098;-79
2023/02/04 05:07:11;;;;;;;31.60;23.67;;;7.90;90.10;;;;;;6339605;22;20018;-80
2023/02/04 05:09:37;;;;;;;37.25;23.00;;;7.80;90.10;;;;;;6311162;22;20452;-79
2023/02/04 05:12:03;;;;;;;29.80;24.02;;;7.90;90.10;;;;;;6338065;22;20074;-79
2023/02/04 05:14:29;;;;;;;30.40;23.73;;;7.90;90.20;;;;;;6337917;22;19995;-79
2023/02/04 05:16:54;;;;;;;33.75;23.85;;;7.80;90.10;;;;;;6338242;22;20314;-79
2023/02/04 05:19:20;;;;;;;34.95;24.80;;;7.80;90.40;;;;;;6337855;22;20466;-80
2023/02/04 05:21:46;;;;;;;31.88;23.63;;;7.80;90.40;;;;;;6310562;22;20503;-80
2023/02/04 05:24:11;;;;;;;34.55;22.83;;;7.80;90.30;;;;;;6338045;22;21130;-80
2023/02/04 05:26:37;;;;;;;33.85;23.23;;;7.80;90.70;;;;;;6338214;22;20073;-80
2023/02/04 05:29:03;;;;;;;32.70;23.17;;;7.80;90.40;;;;;;6337821;22;20146;-80
2023/02/04 05:31:29;;;;;;;31.02;24.50;;;7.90;90.50;;;;;;6338037;22;20006;-80
2023/02/04 05:33:54;;;;;;;31.45;24.38;;;7.90;90.50;;;;;;6310002;22;20333;-80
2023/02/04 05:36:20;;;;;;;30.83;22.80;;;7.90;90.50;;;;;;6338155;22;20475;-80
2023/02/04 05:38:46;;;;;;;33.88;23.52;;;7.90;90.60;;;;;;6338067;22;19998;-80
2023/02/04 05:41:12;;;;;;;30.25;23.20;;;7.90;90.70;;;;;;6310259;22;20006;-80
2023/02/04 05:43:38;;;;;;;33.83;22.30;;;8.00;90.60;;;;;;6337694;22;20066;-81
2023/02/04 05:46:04;;;;;;;30.65;22.92;;;8.00;90.60;;;;;;6337851;22;20324;-80
2023/02/04 05:48:30;;;;;;;29.67;22.05;;;8.00;90.60;;;;;;6339615;22;19999;-80
2023/02/04 05:50:56;;;;;;;30.00;21.58;;;8.10;90.70;;;;;;6339672;22;20417;-79
2023/02/04 05:53:21;;;;;;;23.08;19.25;;;8.10;90.60;;;;;;6339601;22;20414;-80
2023/02/04 05:55:47;;;;;;;27.20;19.40;;;8.00;90.70;;;;;;6339566;22;19998;-80
2023/02/04 05:58:12;;;;;;;26.92;19.58;;;8.00;90.60;;;;;;6339403;22;19995;-79
2023/02/04 06:00:38;;;;;;;25.70;19.13;;;8.00;90.70;;;;;;6339745;22;20060;-79
2023/02/04 06:03:04;;;;;;;24.77;18.13;;;8.00;90.70;;;;;;6339639;22;19999;-80
2023/02/04 06:05:30;;;;;;;22.38;17.30;;;8.00;90.60;;;;;;6339962;22;19999;-81
2023/02/04 06:07:55;;;;;;;22.88;17.25;;;8.00;90.70;;;;;;6339372;22;20317;-80
2023/02/04 06:10:21;;;;;;;22.10;17.60;;;8.10;90.60;;;;;;6339680;22;20015;-79
2023/02/04 06:12:47;;;;;;;20.35;16.95;;;8.10;90.70;;;;;;6339394;22;20005;-81
2023/02/04 06:15:13;;;;;;;22.13;16.58;;;8.10;90.50;;;;;;6339559;22;19999;-81
2023/02/04 06:17:39;;;;;;;22.45;17.30;;;8.10;90.60;;;;;;6339313;22;20047;-81
2023/02/04 06:20:06;;;;;;;22.88;17.02;;;8.00;90.40;;;;;;6339552;22;19999;-79
2023/02/04 06:22:32;;;;;;;23.85;18.90;;;8.00;90.60;;;;;;6339487;22;19999;-80
2023/02/04 06:24:58;;;;;;;24.88;16.42;;;8.00;90.60;;;;;;6339317;22;20389;-79
2023/02/04 06:27:24;;;;;;;24.70;17.75;;;8.00;90.60;;;;;;6311559;22;20015;-79
2023/02/04 06:29:53;;;;;;;23.33;17.45;;;8.00;90.40;;;;;;6339006;22;20042;-79
2023/02/04 06:32:19;;;;;;;23.23;17.55;;;8.10;90.60;;;;;;6339576;22;20007;-79
2023/02/04 06:34:45;;;;;;;22.65;17.15;;;8.10;90.50;;;;;;6329655;22;20003;-79
2023/02/04 06:37:11;;;;;;;25.67;18.45;;;8.00;90.30;;;;;;6355835;22;20003;-78
2023/02/04 06:39:37;;;;;;;21.23;17.63;;;7.90;90.30;;;;;;6350088;22;20002;-80
2023/02/04 06:42:03;;;;;;;25.05;18.35;;;7.90;90.40;;;;;;6342197;22;20010;-81
2023/02/04 06:44:29;;;;;;;26.63;18.10;;;8.00;90.30;;;;;;6345322;22;19995;-80
2023/02/04 06:46:55;;;;;;;28.30;18.98;;;8.00;90.40;;;;;;6339687;22;20056;-81
2023/02/04 06:49:20;;;;;;;27.13;19.08;;;8.10;90.40;;;;;;6339783;22;20014;-80
2023/02/04 06:51:47;;;;;;;26.10;18.63;;;8.10;90.40;;;;;;6339176;22;20007;-80
2023/02/04 06:54:13;;;;;;;24.23;17.80;;;8.20;90.30;;;;;;6338935;22;19995;-79
2023/02/04 06:56:39;;;;;;;26.00;19.23;;;8.10;90.00;;;;;;6339304;22;20003;-81
2023/02/04 06:59:04;;;;;;;22.85;17.65;;;8.10;90.10;;;;;;6339150;22;20359;-81
2023/02/04 07:01:30;;;;;;;23.77;17.83;;;8.10;89.90;;;;;;6339106;22;20003;-81
2023/02/04 07:03:56;;;;;;;25.10;18.73;;;8.00;90.00;;;;;;6338635;22;20007;-80
2023/02/04 07:06:22;;;;;;;24.55;17.92;;;8.00;90.10;;;;;;6339419;22;20010;-80
2023/02/04 07:08:48;;;;;;;20.90;18.15;;;8.10;90.00;;;;;;6313703;22;20031;-80
2023/02/04 07:11:14;;;;;;;22.92;18.30;;;8.10;90.00;;;;;;6340358;22;20455;-79
2023/02/04 07:13:40;;;;;;;24.58;19.23;;;8.10;89.80;;;;;;6342308;22;19991;-79
2023/02/04 07:16:06;;;;;;;23.85;18.35;;;8.20;90.00;;;;;;6348621;22;20005;-81
2023/02/04 07:18:32;;;;;;;29.10;18.92;;;8.20;89.90;;;;;;6341207;22;20033;-80
2023/02/04 07:20:58;;;;;;;30.05;19.73;;;8.20;89.70;;;;;;6339489;22;19995;-79
2023/02/04 07:23:24;;;;;;;27.42;19.23;;;8.10;89.50;;;;;;6339440;22;20310;-79
2023/02/04 07:25:52;;;;;;;27.73;19.50;;;8.10;89.30;;;;;;6339242;22;19999;-80
2023/02/04 07:28:18;;;;;;;30.63;20.80;;;8.10;89.40;;;;;;6339733;22;20006;-81
2023/02/04 07:30:45;;;;;;;26.63;20.45;;;8.10;89.60;;;;;;6338683;22;20039;-80
2023/02/04 07:33:10;;;;;;;28.10;21.35;;;8.10;89.10;;;;;;6339333;22;20033;-81
2023/02/04 07:35:39;;;;;;;27.77;20.17;;;8.10;89.40;;;;;;6338973;22;19999;-81
2023/02/04 07:38:05;;;;;;;23.20;19.75;;;8.20;89.50;;;;;;6339239;22;20485;-79
2023/02/04 07:40:31;;;;;;;22.77;19.17;;;8.40;89.30;;;;;;6339345;22;19995;-79
2023/02/04 07:42:57;;;;;;;23.88;18.63;;;8.40;88.90;;;;;;6338956;22;20078;-81
2023/02/04 07:45:23;;;;;;;25.92;19.17;;;8.50;89.00;;;;;;6338569;22;20002;-79
2023/02/04 07:47:49;;;;;;;22.05;18.42;;;8.70;88.80;;;;;;6338898;22;20011;-80
2023/02/04 07:50:15;;;;;;;23.02;17.90;;;8.90;88.40;;;;;;6338762;22;20098;-80
2023/02/04 07:52:41;;;;;;;22.35;18.48;;;8.90;88.10;;;;;;6338783;22;20003;-81
2023/02/04 07:55:07;;;;;;;23.27;17.88;;;8.90;87.40;;;;;;6338652;22;20321;-81
2023/02/04 07:57:33;;;;;;;26.92;17.92;;;8.70;87.50;;;;;;6338572;22;20049;-80
2023/02/04 07:59:59;;;;;;;25.63;18.60;;;8.80;88.00;;;;;;6338458;22;20010;-81
2023/02/04 08:02:25;;;;;;;27.85;18.50;;;8.70;88.00;;;;;;6311589;22;20448;-81
2023/02/04 08:04:51;;;;;;;22.05;18.13;;;8.90;88.40;;;;;;6338886;22;20003;-81
2023/02/04 08:07:17;;;;;;;22.75;18.33;;;8.90;87.80;;;;;;6338591;22;20089;-79
2023/02/04 08:09:43;;;;;;;25.13;18.67;;;9.00;87.80;;;;;;6337972;22;19995;-78
2023/02/04 08:12:08;;;;;;;23.13;17.90;;;9.20;87.70;;;;;;6338185;22;20028;-80
2023/02/04 08:14:34;;;;;;;26.42;18.63;;;9.20;87.70;;;;;;6310949;22;20010;-81
2023/02/04 08:17:00;;;;;;;28.80;19.45;;;9.30;87.40;;;;;;6338680;22;20435;-81
2023/02/04 08:19:25;;;;;;;24.50;19.70;;;9.30;87.10;;;;;;6338348;22;20010;-81
2023/02/04 08:21:51;;;;;;;25.10;19.45;;;9.30;87.40;;;;;;6338521;22;20081;-80
2023/02/04 08:24:17;;;;;;;26.52;19.08;;;9.30;87.10;;;;;;6338487;22;20002;-81
2023/02/04 08:26:43;;;;;;;23.95;18.80;;;9.40;87.30;;;;;;6338609;22;20019;-82
2023/02/04 08:29:09;;;;;;;29.27;19.85;;;9.40;87.50;;;;;;6338154;22;20014;-79
2023/02/04 08:31:36;;;;;;;24.35;19.67;;;9.40;87.10;;;;;;6337901;22;20072;-79
2023/02/04 08:34:03;;;;;;;24.30;19.23;;;9.40;86.90;;;;;;6310568;22;20282;-79
2023/02/04 08:36:29;;;;;;;26.77;19.63;;;9.40;87.10;;;;;;6338420;22;20030;-74
2023/02/04 08:38:55;;;;;;;28.65;21.75;;;9.40;86.90;;;;;;6337895;22;20005;-73
2023/02/04 08:41:21;;;;;;;30.70;22.95;;;9.50;87.00;;;;;;6338267;22;19995;-79
2023/02/04 08:43:46;;;;;;;32.85;23.23;;;9.50;86.90;;;;;;6338623;22;20011;-78
2023/02/04 08:46:12;;;;;;;29.65;21.70;;;9.40;86.70;;;;;;6351718;22;20006;-78
2023/02/04 08:48:38;;;;;;;29.55;23.60;;;9.30;87.00;;;;;;6354442;22;20033;-78
2023/02/04 08:51:04;;;;;;;37.97;25.02;;;9.30;86.70;;;;;;6352315;22;20002;-72
2023/02/04 08:53:29;;;;;;;30.88;24.77;;;9.30;86.90;;;;;;6337538;22;20438;-73
2023/02/04 08:55:55;;;;;;;33.75;24.27;;;9.30;87.10;;;;;;6338281;22;20002;-75
2023/02/04 08:58:21;;;;;;;32.78;24.55;;;9.30;87.00;;;;;;6337647;22;20046;-77
2023/02/04 09:00:46;;;;;;;33.97;24.77;;;9.30;87.20;;;;;;6337732;22;20003;-71
2023/02/04 09:03:12;;;;;;;29.85;24.60;;;9.40;86.70;;;;;;6338228;22;20475;-71
2023/02/04 09:05:38;;;;;;;34.90;23.60;;;9.40;86.80;;;;;;6309603;22;20010;-74
2023/02/04 09:08:03;;;;;;;33.03;24.00;;;9.40;86.60;;;;;;6337423;22;20009;-75
2023/02/04 09:10:29;;;;;;;31.45;24.33;;;9.50;87.00;;;;;;6337268;22;20425;-74
2023/02/04 09:12:55;;;;;;;31.70;23.55;;;9.50;87.00;;;;;;6337439;22;20076;-73
2023/02/04 09:15:24;;;;;;;29.25;23.05;;;9.60;86.60;;;;;;6309438;22;20009;-73
2023/02/04 09:17:52;;;;;;;33.10;24.42;;;9.70;85.10;;;;;;6337730;22;19995;-77
2023/02/04 09:20:20;;;;;;;32.53;22.90;;;9.80;86.80;;;;;;6338164;22;20007;-77
2023/02/04 09:22:47;;;;;;;32.67;23.88;;;9.80;86.20;;;;;;6339914;22;20042;-76
2023/02/04 09:25:12;;;;;;;32.40;22.08;;;9.80;86.20;;;;;;6340019;22;20337;-76
2023/02/04 09:27:38;;;;;;;34.35;22.70;;;9.80;85.60;;;;;;6339634;22;20007;-76
2023/02/04 09:30:04;;;;;;;32.05;21.60;;;9.80;85.60;;;;;;6339655;22;20011;-77
2023/02/04 09:32:30;;;;;;;30.88;22.75;;;9.90;85.60;;;;;;6340777;22;20007;-81
2023/02/04 09:34:56;;;;;;;33.70;20.85;;;10.00;84.60;;;;;;6339880;22;20327;-78
2023/02/04 09:37:23;;;;;;;26.98;19.08;;;10.20;85.00;;;;;;6312283;22;20010;-78
2023/02/04 09:39:49;;;;;;;24.92;17.92;;;10.30;84.20;;;;;;6339782;22;20067;-73
2023/02/04 09:42:15;;;;;;;28.65;18.40;;;10.50;83.60;;;;;;6339974;22;20432;-80
2023/02/04 09:44:44;;;;;;;25.90;17.63;;;10.70;83.40;;;;;;6340304;22;20055;-75
2023/02/04 09:47:14;;;;;;;25.83;15.20;;;10.90;83.00;;;;;;6339555;22;20029;-75
2023/02/04 09:49:43;;;;;;;21.55;14.68;;;11.00;82.60;;;;;;6340197;22;20037;-76
2023/02/04 09:52:13;;;;;;;24.92;14.80;;;11.20;82.40;;;;;;6339545;22;20427;-77
2023/02/04 09:54:38;;;;;;;20.42;13.27;;;11.30;81.90;;;;;;6339836;22;20006;-78
2023/02/04 09:57:18;;;;;;;18.83;11.52;;;11.50;81.20;;;;;;6339690;22;20338;-77
2023/02/04 09:59:45;;;;;;;15.10;9.80;;;11.60;80.70;;;;;;6339426;22;19999;-76
2023/02/04 10:02:23;;;;;;;23.10;11.00;;;11.80;80.00;;;;;;6339619;22;20301;-78
2023/02/04 10:04:52;;;;;;;18.67;10.13;;;11.90;80.00;;;;;;6339422;22;20045;-77
2023/02/04 10:07:23;;;;;;;20.88;11.00;;;12.10;79.40;;;;;;6339517;22;20038;-78
2023/02/04 10:09:49;;;;;;;16.45;9.05;;;12.20;79.20;;;;;;6339212;22;20005;-77
2023/02/04 10:12:15;;;;;;;11.20;7.60;;;12.30;77.60;;;;;;6339458;22;19999;-76
2023/02/04 10:14:41;;;;;;;14.45;7.10;;;12.40;77.00;;;;;;6311359;22;20010;-77
2023/02/04 10:17:08;;;;;;;16.48;6.90;;;12.50;77.00;;;;;;6339633;22;20313;-76
2023/02/04 10:19:34;;;;;;;13.32;6.63;;;12.60;76.40;;;;;;6339308;22;20005;-77
2023/02/04 10:22:03;;;;;;;17.25;6.88;;;12.70;76.20;;;;;;6339164;22;20070;-76
2023/02/04 10:24:29;;;;;;;14.63;6.68;;;12.80;75.90;;;;;;6339330;22;20013;-79
2023/02/04 10:27:07;;;;;;;16.13;7.75;;;12.80;75.70;;;;;;6339488;22;20067;-77
2023/02/04 10:29:33;;;;;;;15.98;6.90;;;12.90;75.60;;;;;;6339071;22;20037;-77
2023/02/04 10:31:58;;;;;;;18.77;7.45;;;13.00;75.50;;;;;;6339229;22;20325;-77
2023/02/04 10:34:38;;;;;;;13.30;5.93;;;13.10;74.70;;;;;;6338931;22;20006;-76
2023/02/04 10:37:19;;;;;;;13.82;6.57;;;13.20;74.70;;;;;;6339775;22;20069;-78
2023/02/04 10:39:45;;;;;;;14.27;6.28;;;13.30;74.40;;;;;;6340560;22;20002;-78
2023/02/04 10:42:25;;;;;;;16.42;6.47;;;13.40;74.30;;;;;;6339248;22;19999;-76
2023/02/04 10:44:51;;;;;;;17.60;7.35;;;13.40;74.30;;;;;;6339292;22;20035;-77
2023/02/04 10:47:19;;;;;;;13.23;6.13;;;13.50;73.60;;;;;;6338853;22;20079;-77
2023/02/04 10:49:57;;;;;;;14.93;6.32;;;13.60;73.70;;;;;;6350026;22;20062;-78
2023/02/04 10:52:33;;;;;;;15.88;6.78;;;13.70;73.20;;;;;;6354137;22;20028;-77
2023/02/04 10:55:01;;;;;;;11.82;6.28;;;13.70;73.00;;;;;;6355371;22;20069;-77
2023/02/04 10:57:29;;;;;;;18.38;7.22;;;13.80;72.90;;;;;;6340121;22;20332;-77
2023/02/04 11:00:00;;;;;;;11.75;6.07;;;13.90;72.70;;;;;;6339957;22;20044;-75
2023/02/04 11:02:46;;;;;;;12.35;5.10;;;14.00;72.70;;;;;;6339519;22;20329;-77
2023/02/04 11:05:16;;;;;;;10.77;4.88;;;14.10;72.40;;;;;;6339488;22;20006;-71
2023/02/04 11:07:43;;;;;;;14.70;4.80;;;14.20;72.00;;;;;;6339351;22;20329;-78
2023/02/04 11:10:15;;;;;;;11.38;5.10;;;14.30;72.60;;;;;;6338924;22;19999;-78
2023/02/04 11:12:44;;;;;;;11.43;5.05;;;14.30;71.50;;;;;;6339314;22;20018;-78
2023/02/04 11:15:34;;;;;;;12.90;4.93;;;14.40;71.40;;;;;;6285732;22;20006;-76
2023/02/04 11:18:06;;;;;;;12.55;4.95;;;14.60;70.00;;;;;;6311092;22;20042;-77
2023/02/04 11:20:33;;;;;;;11.98;5.28;;;14.70;70.70;;;;;;6339036;22;20006;-76
2023/02/04 11:23:31;;;;;;;18.77;5.15;;;14.80;70.20;;;;;;6338849;22;20436;-77
2023/02/04 11:26:09;;;;;;;17.77;4.60;;;14.90;70.10;;;;;;6339175;22;20014;-78
2023/02/04 11:28:43;;;;;;;15.63;4.07;;;15.00;69.40;;;;;;6338683;22;20009;-77
2023/02/04 11:31:20;;;;;;;14.43;4.20;;;15.00;68.60;;;;;;6339480;22;20085;-76
2023/02/04 11:33:47;;;;;;;10.02;3.97;;;15.10;68.20;;;;;;6339535;22;20079;-77
2023/02/04 11:36:15;;;;;;;13.60;3.90;;;15.10;67.80;;;;;;6338411;22;19999;-76
2023/02/04 11:38:46;;;;;;;10.50;4.13;;;15.10;67.40;;;;;;6339080;22;20023;-77
2023/02/04 11:41:23;;;;;;;9.63;3.75;;;15.00;66.90;;;;;;6339002;22;20003;-77
2023/02/04 11:43:54;;;;;;;11.35;3.38;;;15.00;66.50;;;;;;6338632;22;20431;-77
2023/02/04 11:46:20;;;;;;;12.95;4.35;;;15.00;65.80;;;;;;6338043;22;20003;-77
2023/02/04 11:48:46;;;;;;;11.05;3.17;;;15.00;65.80;;;;;;6338106;22;20400;-77
2023/02/04 11:51:15;;;;;;;11.02;3.30;;;15.00;66.10;;;;;;6338373;22;20003;-76
2023/02/04 11:53:41;;;;;;;10.88;3.83;;;15.00;65.90;;;;;;6338363;22;20002;-75
2023/02/04 11:56:18;;;;;;;12.13;4.10;;;15.00;65.60;;;;;;6338261;22;20003;-76
2023/02/04 11:58:44;;;;;;;10.90;3.88;;;15.00;66.00;;;;;;6310632;22;20428;-77
2023/02/04 12:01:24;;;;;;;13.65;3.70;;;15.00;65.90;;;;;;6310911;22;20022;-77
2023/02/04 12:04:01;;;;;;;12.70;4.13;;;15.00;65.30;;;;;;6338811;22;20026;-78
2023/02/04 12:06:33;;;;;;;11.38;3.88;;;15.00;65.40;;;;;;6338789;22;20423;-76
2023/02/04 12:09:21;;;;;;;10.52;4.40;;;15.00;65.70;;;;;;6310973;22;19999;-78
2023/02/04 12:12:03;;;;;;;18.23;5.80;;;15.00;65.90;;;;;;6338411;22;20328;-78
2023/02/04 12:14:35;;;;;;;20.95;6.30;;;15.00;66.40;;;;;;6338657;22;19999;-75
2023/02/04 12:17:11;;;;;;;11.43;3.75;;;15.00;65.90;;;;;;6338959;22;20064;-77
2023/02/04 12:19:37;;;;;;;10.32;3.72;;;15.10;65.70;;;;;;6338828;22;19995;-75
2023/02/04 12:22:03;;;;;;;15.70;3.97;;;15.10;65.60;;;;;;6339086;22;20013;-78
2023/02/04 12:24:28;;;;;;;13.18;3.63;;;15.10;65.30;;;;;;6339294;22;20006;-77
2023/02/04 12:26:54;;;;;;;11.75;4.03;;;15.20;64.90;;;;;;6338772;22;20034;-77
2023/02/04 12:29:19;;;;;;;12.50;3.83;;;15.20;65.10;;;;;;6338203;22;20016;-77
2023/02/04 12:31:45;;;;;;;12.55;3.45;;;15.30;64.70;;;;;;6310812;22;20006;-77
2023/02/04 12:34:11;;;;;;;16.55;5.68;;;15.30;64.50;;;;;;6338567;22;20078;-79
2023/02/04 12:36:36;;;;;;;11.20;3.70;;;15.30;64.60;;;;;;6338691;22;20003;-77